sensor_id;sensor_type;location;lat;lon;timestamp;temperature;humidity
45311;SHT31;68264;51.540;5.854;2023-08-30T00:14:22;13.0;92.6
45311;SHT31;68264;51.540;5.854;2023-08-30T00:28:41;12.8;92.8
45311;SHT31;68264;51.540;5.854;2023-08-30T00:42:40;12.6;93.0
45311;SHT31;68264;51.540;5.854;2023-08-30T00:57:08;12.5;92.9
45311;SHT31;68264;51.540;5.854;2023-08-30T01:12:29;12.7;92.4
45311;SHT31;68264;51.540;5.854;2023-08-30T01:27:29;12.6;92.2
45311;SHT31;68264;51.540;5.854;2023-08-30T01:42:29;12.6;92.0
45311;SHT31;68264;51.540;5.854;2023-08-30T01:57:28;12.7;92.3
45311;SHT31;68264;51.540;5.854;2023-08-30T02:11:27;12.7;92.0
45311;SHT31;68264;51.540;5.854;2023-08-30T02:25:26;12.6;92.2
45311;SHT31;68264;51.540;5.854;2023-08-30T02:39:55;12.5;92.6
45311;SHT31;68264;51.540;5.854;2023-08-30T02:54:14;12.6;93.1
45311;SHT31;68264;51.540;5.854;2023-08-30T03:09:14;12.7;93.5
45311;SHT31;68264;51.540;5.854;2023-08-30T03:24:14;12.8;93.0
45311;SHT31;68264;51.540;5.854;2023-08-30T03:38:13;12.9;92.8
45311;SHT31;68264;51.540;5.854;2023-08-30T03:52:41;12.9;92.1
45311;SHT31;68264;51.540;5.854;2023-08-30T04:07:00;12.9;91.7
45311;SHT31;68264;51.540;5.854;2023-08-30T04:21:28;12.7;92.3
45311;SHT31;68264;51.540;5.854;2023-08-30T04:36:49;12.6;92.9
45311;SHT31;68264;51.540;5.854;2023-08-30T04:52:17;12.6;93.3
45311;SHT31;68264;51.540;5.854;2023-08-30T05:21:25;12.6;93.9
45311;SHT31;68264;51.540;5.854;2023-08-30T05:35:24;12.7;93.9
45311;SHT31;68264;51.540;5.854;2023-08-30T05:49:23;13.0;93.1
45311;SHT31;68264;51.540;5.854;2023-08-30T06:03:22;13.3;92.7
45311;SHT31;68264;51.540;5.854;2023-08-30T06:17:21;13.6;92.8
45311;SHT31;68264;51.540;5.854;2023-08-30T06:31:20;13.9;91.8
45311;SHT31;68264;51.540;5.854;2023-08-30T06:45:19;14.2;90.5
45311;SHT31;68264;51.540;5.854;2023-08-30T06:59:18;14.7;89.4
45311;SHT31;68264;51.540;5.854;2023-08-30T07:13:17;14.9;88.4
45311;SHT31;68264;51.540;5.854;2023-08-30T07:27:16;14.7;87.5
45311;SHT31;68264;51.540;5.854;2023-08-30T07:42:48;14.3;89.9
45311;SHT31;68264;51.540;5.854;2023-08-30T07:58:18;14.3;92.0
45311;SHT31;68264;51.540;5.854;2023-08-30T08:12:17;14.1;92.7
45311;SHT31;68264;51.540;5.854;2023-08-30T08:26:16;14.0;93.5
45311;SHT31;68264;51.540;5.854;2023-08-30T08:40:15;13.8;94.3
45311;SHT31;68264;51.540;5.854;2023-08-30T08:54:44;13.9;95.3
45311;SHT31;68264;51.540;5.854;2023-08-30T09:09:32;13.8;95.4
45311;SHT31;68264;51.540;5.854;2023-08-30T09:23:51;13.9;95.1
45311;SHT31;68264;51.540;5.854;2023-08-30T09:37:50;14.0;95.0
45311;SHT31;68264;51.540;5.854;2023-08-30T09:52:18;14.2;95.3
45311;SHT31;68264;51.540;5.854;2023-08-30T10:06:38;14.6;94.8
45311;SHT31;68264;51.540;5.854;2023-08-30T10:21:06;14.7;95.0
45311;SHT31;68264;51.540;5.854;2023-08-30T10:35:54;15.7;92.9
45311;SHT31;68264;51.540;5.854;2023-08-30T10:50:13;15.8;91.7
45311;SHT31;68264;51.540;5.854;2023-08-30T11:04:41;16.5;88.7
45311;SHT31;68264;51.540;5.854;2023-08-30T11:19:01;16.6;89.1
45311;SHT31;68264;51.540;5.854;2023-08-30T11:33:29;17.4;88.2
45311;SHT31;68264;51.540;5.854;2023-08-30T11:47:48;18.2;83.8
45311;SHT31;68264;51.540;5.854;2023-08-30T12:01:47;18.7;77.9
45311;SHT31;68264;51.540;5.854;2023-08-30T12:16:47;17.3;81.4
45311;SHT31;68264;51.540;5.854;2023-08-30T12:31:47;16.8;84.9
45311;SHT31;68264;51.540;5.854;2023-08-30T12:46:15;17.6;82.6
45311;SHT31;68264;51.540;5.854;2023-08-30T13:00:34;18.1;77.7
45311;SHT31;68264;51.540;5.854;2023-08-30T13:14:33;18.6;75.0
45311;SHT31;68264;51.540;5.854;2023-08-30T13:28:32;18.0;74.5
45311;SHT31;68264;51.540;5.854;2023-08-30T13:42:31;18.7;73.1
45311;SHT31;68264;51.540;5.854;2023-08-30T13:56:31;18.4;71.3
45311;SHT31;68264;51.540;5.854;2023-08-30T14:10:30;19.2;65.0
45311;SHT31;68264;51.540;5.854;2023-08-30T14:24:58;19.1;62.6
45311;SHT31;68264;51.540;5.854;2023-08-30T14:39:17;18.8;60.4
45311;SHT31;68264;51.540;5.854;2023-08-30T14:53:16;18.8;60.7
45311;SHT31;68264;51.540;5.854;2023-08-30T15:07:15;18.8;62.9
45311;SHT31;68264;51.540;5.854;2023-08-30T15:21:14;19.1;63.7
45311;SHT31;68264;51.540;5.854;2023-08-30T15:35:13;18.4;64.2
45311;SHT31;68264;51.540;5.854;2023-08-30T15:49:12;18.3;65.1
45311;SHT31;68264;51.540;5.854;2023-08-30T16:03:11;18.3;66.6
45311;SHT31;68264;51.540;5.854;2023-08-30T16:17:10;18.0;69.2
45311;SHT31;68264;51.540;5.854;2023-08-30T16:31:09;17.3;73.9
45311;SHT31;68264;51.540;5.854;2023-08-30T16:45:08;17.3;75.2
45311;SHT31;68264;51.540;5.854;2023-08-30T16:59:37;17.3;72.7
45311;SHT31;68264;51.540;5.854;2023-08-30T17:14:25;17.4;72.2
45311;SHT31;68264;51.540;5.854;2023-08-30T17:28:44;17.8;70.9
45311;SHT31;68264;51.540;5.854;2023-08-30T17:42:43;16.9;74.3
45311;SHT31;68264;51.540;5.854;2023-08-30T17:56:42;16.3;76.9
45311;SHT31;68264;51.540;5.854;2023-08-30T18:11:42;16.1;78.0
45311;SHT31;68264;51.540;5.854;2023-08-30T18:27:11;15.7;79.4
45311;SHT31;68264;51.540;5.854;2023-08-30T18:41:30;15.2;81.8
45311;SHT31;68264;51.540;5.854;2023-08-30T18:56:30;14.7;81.9
45311;SHT31;68264;51.540;5.854;2023-08-30T19:11:30;14.3;83.1
45311;SHT31;68264;51.540;5.854;2023-08-30T19:25:58;14.0;82.7
45311;SHT31;68264;51.540;5.854;2023-08-30T19:40:17;13.8;83.0
45311;SHT31;68264;51.540;5.854;2023-08-30T19:55:18;13.7;83.8
45311;SHT31;68264;51.540;5.854;2023-08-30T20:10:17;13.8;83.3
45311;SHT31;68264;51.540;5.854;2023-08-30T20:24:16;13.7;82.9
45311;SHT31;68264;51.540;5.854;2023-08-30T20:38:44;13.6;83.4
45311;SHT31;68264;51.540;5.854;2023-08-30T20:53:04;13.7;83.8
45311;SHT31;68264;51.540;5.854;2023-08-30T21:07:03;13.6;83.8
45311;SHT31;68264;51.540;5.854;2023-08-30T21:21:02;13.3;84.8
45311;SHT31;68264;51.540;5.854;2023-08-30T21:35:30;13.0;86.2
45311;SHT31;68264;51.540;5.854;2023-08-30T21:49:49;12.8;87.8
45311;SHT31;68264;51.540;5.854;2023-08-30T22:04:49;12.7;88.6
45311;SHT31;68264;51.540;5.854;2023-08-30T22:20:18;12.6;89.0
45311;SHT31;68264;51.540;5.854;2023-08-30T22:35:06;12.3;90.4
45311;SHT31;68264;51.540;5.854;2023-08-30T22:49:25;12.1;90.4
45311;SHT31;68264;51.540;5.854;2023-08-30T23:03:24;11.9;90.7
45311;SHT31;68264;51.540;5.854;2023-08-30T23:17:53;11.6;91.6
45311;SHT31;68264;51.540;5.854;2023-08-30T23:32:12;11.6;91.7
45311;SHT31;68264;51.540;5.854;2023-08-30T23:46:40;11.6;91.9
